Time;durP1;ratioP1;P1;durP2;ratioP2;P2;SDS_P1;SDS_P2;PMS_P1;PMS_P2;Temp;Humidity;BMP_temperature;BMP_pressure;BME280_temperature;BME280_humidity;BME280_pressure;Samples;Min_cycle;Max_cycle;Signal;HPM_P1;HPM_P2
2022/09/18 00:02:55;;;;;;;;;;;;;;;20.25;46.60;95560.13;10432984;28;2887;-45
2022/09/18 00:07:56;;;;;;;;;;;;;;;20.23;46.50;95567.50;10438067;28;2868;-44
2022/09/18 00:12:56;;;;;;;;;;;;;;;20.22;46.27;95569.34;10440215;28;2839;-44
2022/09/18 00:17:56;;;;;;;;;;;;;;;20.21;46.42;95572.25;10438638;28;3006;-43
2022/09/18 00:22:57;;;;;;;;;;;;;;;20.21;46.44;95574.91;10437876;28;2817;-45
2022/09/18 00:27:58;;;;;;;;;;;;;;;20.20;46.68;95578.56;10435201;28;2874;-44
2022/09/18 00:32:58;;;;;;;;;;;;;;;20.20;46.31;95581.22;10437084;28;2874;-44
2022/09/18 00:37:58;;;;;;;;;;;;;;;20.19;46.40;95577.00;10435446;28;3169;-43
2022/09/18 00:43:14;;;;;;;;;;;;;;;20.18;46.34;95575.41;10429279;28;2832;-44
2022/09/18 00:48:15;;;;;;;;;;;;;;;20.18;46.38;95572.78;10443165;28;2936;-45
2022/09/18 00:53:15;;;;;;;;;;;;;;;20.17;46.29;95576.47;10454562;28;2835;-44
2022/09/18 00:58:16;;;;;;;;;;;;;;;20.15;46.48;95562.81;10441433;28;2849;-45
2022/09/18 01:03:16;;;;;;;;;;;;;;;20.15;46.27;95576.72;10431039;28;2941;-44
2022/09/18 01:08:35;;;;;;;;;;;;;;;20.14;46.20;95577.81;10433969;28;2818;-44
2022/09/18 01:13:44;;;;;;;;;;;;;;;20.14;46.54;95582.28;10429738;28;3099;-43
2022/09/18 01:18:55;;;;;;;;;;;;;;;20.15;46.41;95594.38;10435333;28;2803;-44
2022/09/18 01:23:55;;;;;;;;;;;;;;;20.14;46.50;95593.59;10428302;28;2819;-45
2022/09/18 01:28:57;;;;;;;;;;;;;;;20.14;46.38;95592.81;10439125;28;2883;-44
2022/09/18 01:34:02;;;;;;;;;;;;;;;20.12;46.43;95582.56;10434940;28;3117;-43
2022/09/18 01:39:08;;;;;;;;;;;;;;;20.12;46.50;95584.41;10468806;28;2898;-43
2022/09/18 01:44:11;;;;;;;;;;;;;;;20.10;46.24;95571.53;10442213;28;2934;-44
2022/09/18 01:49:11;;;;;;;;;;;;;;;20.10;46.09;95581.25;10472307;28;2969;-46
2022/09/18 01:54:16;;;;;;;;;;;;;;;20.10;46.20;95586.50;10464573;28;2950;-43
2022/09/18 01:59:21;;;;;;;;;;;;;;;20.09;46.11;95584.97;10464010;28;2882;-44
2022/09/18 02:04:23;;;;;;;;;;;;;;;20.08;46.08;95588.63;10439371;28;2868;-43
2022/09/18 02:09:23;;;;;;;;;;;;;;;20.06;46.27;95575.75;10441604;28;2882;-46
2022/09/18 02:14:27;;;;;;;;;;;;;;;20.05;46.33;95576.81;10471416;28;2895;-44
2022/09/18 02:19:30;;;;;;;;;;;;;;;20.06;46.15;95582.84;10462767;28;2966;-45
2022/09/18 02:24:32;;;;;;;;;;;;;;;20.05;46.11;95568.16;10430377;28;2919;-46
2022/09/18 02:29:32;;;;;;;;;;;;;;;20.05;46.23;95573.41;10433932;28;2882;-47
2022/09/18 02:34:33;;;;;;;;;;;;;;;20.04;46.00;95571.81;10460670;28;2828;-45
2022/09/18 02:39:48;;;;;;;;;;;;;;;20.04;45.97;95566.56;10428031;28;3002;-45
2022/09/18 02:45:07;;;;;;;;;;;;;;;20.03;46.12;95560.50;10465976;28;2880;-42
2022/09/18 02:50:26;;;;;;;;;;;;;;;20.01;45.97;95564.50;10443151;28;2910;-43
2022/09/18 02:55:27;;;;;;;;;;;;;;;20.01;46.09;95557.38;10437570;28;2887;-43
2022/09/18 03:00:28;;;;;;;;;;;;;;;20.01;46.07;95556.59;10437515;28;2886;-43
2022/09/18 03:05:29;;;;;;;;;;;;;;;19.98;46.04;95552.66;10463625;28;2895;-44
2022/09/18 03:10:30;;;;;;;;;;;;;;;19.99;46.16;95546.34;10436667;28;2886;-44
2022/09/18 03:15:30;;;;;;;;;;;;;;;19.99;46.08;95556.09;10432721;28;2879;-44
2022/09/18 03:20:31;;;;;;;;;;;;;;;19.97;46.16;95545.06;10435422;28;2967;-43
2022/09/18 03:25:31;;;;;;;;;;;;;;;19.97;46.15;95561.59;10432259;28;2891;-45
2022/09/18 03:30:32;;;;;;;;;;;;;;;19.98;45.97;95557.13;10434043;28;2863;-46
2022/09/18 03:35:32;;;;;;;;;;;;;;;19.95;45.91;95555.84;10440942;28;2848;-45
2022/09/18 03:40:32;;;;;;;;;;;;;;;19.95;46.09;95550.56;10431818;28;3013;-44
2022/09/18 03:45:33;;;;;;;;;;;;;;;19.94;46.07;95569.25;10430902;28;2985;-44
2022/09/18 03:50:33;;;;;;;;;;;;;;;19.93;46.17;95554.53;10434200;28;2852;-44
2022/09/18 03:55:34;;;;;;;;;;;;;;;19.94;46.06;95566.63;10437105;28;2872;-44
2022/09/18 04:00:35;;;;;;;;;;;;;;;19.93;45.96;95559.78;10435852;28;2947;-46
2022/09/18 04:05:35;;;;;;;;;;;;;;;19.91;46.18;95554.00;10434513;28;2895;-44
2022/09/18 04:10:36;;;;;;;;;;;;;;;19.92;45.83;95560.88;10462358;28;2907;-44
2022/09/18 04:15:40;;;;;;;;;;;;;;;19.91;46.04;95561.91;10432408;28;2923;-45
2022/09/18 04:20:40;;;;;;;;;;;;;;;19.91;46.08;95559.28;10426552;28;2874;-47
2022/09/18 04:25:41;;;;;;;;;;;;;;;19.90;46.07;95565.63;10431373;28;2887;-44
2022/09/18 04:30:42;;;;;;;;;;;;;;;19.90;46.08;95568.25;10458652;28;2815;-44
2022/09/18 04:35:42;;;;;;;;;;;;;;;19.88;46.05;95570.38;10430448;28;2827;-44
2022/09/18 04:40:42;;;;;;;;;;;;;;;19.87;45.95;95574.81;10437317;28;2973;-44
2022/09/18 04:45:43;;;;;;;;;;;;;;;19.87;46.08;95574.81;10431921;28;3034;-44
2022/09/18 04:50:44;;;;;;;;;;;;;;;19.87;46.13;95576.66;10428947;28;2828;-45
2022/09/18 04:55:44;;;;;;;;;;;;;;;19.87;45.94;95574.03;10436899;28;3038;-46
2022/09/18 05:00:47;;;;;;;;;;;;;;;19.86;45.93;95569.84;10423906;28;2816;-44
2022/09/18 05:05:47;;;;;;;;;;;;;;;19.84;46.08;95580.66;10435277;28;2898;-47
2022/09/18 05:10:48;;;;;;;;;;;;;;;19.84;46.00;95587.75;10434746;28;2888;-44
2022/09/18 05:15:50;;;;;;;;;;;;;;;19.84;46.26;95590.38;10442239;28;2998;-47
2022/09/18 05:20:50;;;;;;;;;;;;;;;19.84;46.11;95593.00;10470612;28;2876;-44
2022/09/18 05:25:51;;;;;;;;;;;;;;;19.83;45.94;95596.69;10470249;28;3084;-45
2022/09/18 05:30:51;;;;;;;;;;;;;;;19.82;46.17;95603.81;10438431;28;2989;-47
2022/09/18 05:35:55;;;;;;;;;;;;;;;19.82;45.90;95600.38;10441950;28;2887;-46
2022/09/18 05:40:57;;;;;;;;;;;;;;;19.82;45.98;95608.28;10439328;28;2996;-45
2022/09/18 05:45:59;;;;;;;;;;;;;;;19.82;45.87;95605.66;10439775;28;2962;-44
2022/09/18 05:51:02;;;;;;;;;;;;;;;19.80;45.89;95603.28;10476452;28;3050;-44
2022/09/18 05:56:02;;;;;;;;;;;;;;;19.79;46.12;95593.03;10466322;28;2875;-45
2022/09/18 06:01:03;;;;;;;;;;;;;;;19.81;46.04;95604.06;10469529;28;2946;-44
2022/09/18 06:06:03;;;;;;;;;;;;;;;19.79;45.87;95601.72;10458652;28;2891;-45
2022/09/18 06:11:04;;;;;;;;;;;;;;;19.80;45.94;95599.88;10464572;28;2978;-46
2022/09/18 06:16:04;;;;;;;;;;;;;;;19.78;45.99;95608.03;10471219;28;2925;-44
2022/09/18 06:21:05;;;;;;;;;;;;;;;19.78;46.08;95607.25;10456906;28;2809;-46
2022/09/18 06:26:05;;;;;;;;;;;;;;;19.76;46.09;95597.00;10455447;28;2807;-45
2022/09/18 06:31:05;;;;;;;;;;;;;;;19.77;45.93;95608.28;10457015;28;2907;-44
2022/09/18 06:36:09;;;;;;;;;;;;;;;19.77;45.93;95608.28;10462260;28;2858;-44
2022/09/18 06:41:09;;;;;;;;;;;;;;;19.77;45.94;95605.66;10459641;28;3101;-44
2022/09/18 06:46:10;;;;;;;;;;;;;;;19.76;46.11;95606.72;10451623;28;3102;-47
2022/09/18 06:51:11;;;;;;;;;;;;;;;19.77;45.86;95603.81;10461662;28;3161;-49
2022/09/18 06:56:11;;;;;;;;;;;;;;;19.76;45.96;95617.25;10448298;28;3148;-44
2022/09/18 07:01:11;;;;;;;;;;;;;;;19.77;45.96;95622.22;10431632;28;3241;-44
2022/09/18 07:06:13;;;;;;;;;;;;;;;19.75;45.95;95613.84;10434636;28;3121;-44
2022/09/18 07:11:13;;;;;;;;;;;;;;;19.75;45.75;95611.19;10434394;28;3118;-44
2022/09/18 07:16:13;;;;;;;;;;;;;;;19.75;46.15;95620.94;10448717;28;3184;-44
2022/09/18 07:21:14;;;;;;;;;;;;;;;19.76;45.97;95622.50;10430845;28;3340;-43
2022/09/18 07:26:14;;;;;;;;;;;;;;;19.75;45.96;95631.44;10441344;28;3262;-43
2022/09/18 07:31:14;;;;;;;;;;;;;;;19.78;46.05;95638.81;10430570;28;3181;-42
2022/09/18 07:36:14;;;;;;;;;;;;;;;19.84;46.17;95640.34;10441360;28;3197;-42
2022/09/18 07:41:15;;;;;;;;;;;;;;;19.88;46.14;95641.38;10437870;28;3149;-42
2022/09/18 07:46:16;;;;;;;;;;;;;;;19.90;46.12;95634.81;10436739;28;3097;-42
2022/09/18 07:51:16;;;;;;;;;;;;;;;19.92;46.08;95632.69;10434262;28;3158;-42
2022/09/18 07:56:16;;;;;;;;;;;;;;;19.94;46.10;95635.81;10439251;28;3157;-42
2022/09/18 08:01:17;;;;;;;;;;;;;;;19.99;46.23;95642.91;10425164;28;3154;-45
2022/09/18 08:06:17;;;;;;;;;;;;;;;19.98;46.14;95646.59;10440268;28;3180;-42
2022/09/18 08:11:18;;;;;;;;;;;;;;;20.01;46.17;95646.06;10438226;28;3174;-42
2022/09/18 08:16:20;;;;;;;;;;;;;;;20.03;46.18;95651.84;10439235;28;3157;-41
2022/09/18 08:21:20;;;;;;;;;;;;;;;20.04;45.83;95645.50;10435135;28;3197;-42
2022/09/18 08:26:20;;;;;;;;;;;;;;;20.02;46.09;95652.88;10439696;28;3114;-42
2022/09/18 08:31:21;;;;;;;;;;;;;;;20.04;46.05;95650.75;10428871;28;3131;-42
2022/09/18 08:36:21;;;;;;;;;;;;;;;20.02;46.34;95648.41;10446657;28;3154;-42
2022/09/18 08:41:30;;;;;;;;;;;;;;;20.02;46.20;95648.41;10461434;28;3171;-43
2022/09/18 08:46:36;;;;;;;;;;;;;;;20.02;46.54;95645.78;10464212;28;3114;-42
2022/09/18 08:51:41;;;;;;;;;;;;;;;20.01;46.16;95651.31;10459677;28;3174;-41
2022/09/18 08:56:41;;;;;;;;;;;;;;;20.01;46.45;95648.69;10460960;28;3173;-41
2022/09/18 09:01:43;;;;;;;;;;;;;;;19.98;46.30;95651.84;10440297;28;3280;-42
2022/09/18 09:06:43;;;;;;;;;;;;;;;19.95;46.12;95652.38;10470373;28;3186;-42
2022/09/18 09:12:05;;;;;;;;;;;;;;;19.92;46.29;95648.47;10444391;28;3253;-40
2022/09/18 09:17:11;;;;;;;;;;;;;;;19.96;46.39;95654.75;10439753;28;3180;-41
2022/09/18 09:22:50;;;;;;;;;;;;;;;20.00;46.32;95647.09;10439701;28;3185;-41
2022/09/18 09:27:57;;;;;;;;;;;;;;;20.02;46.72;95647.63;10486774;28;3167;-41
2022/09/18 09:33:02;;;;;;;;;;;;;;;20.04;46.59;95645.50;10448552;28;3166;-41
2022/09/18 09:38:11;;;;;;;;;;;;;;;20.04;46.61;95643.66;10443518;28;3169;-41
2022/09/18 09:43:30;;;;;;;;;;;;;;;20.05;46.93;95639.19;10436537;28;3137;-41
2022/09/18 09:48:42;;;;;;;;;;;;;;;20.06;46.91;95641.53;10435716;28;3078;-41
2022/09/18 09:53:42;;;;;;;;;;;;;;;20.04;47.67;95641.03;10443542;28;3209;-42
2022/09/18 09:58:57;;;;;;;;;;;;;;;20.04;46.95;95641.03;10444791;28;3109;-41
2022/09/18 10:04:16;;;;;;;;;;;;;;;20.03;46.95;95649.19;10436735;28;3213;-42
2022/09/18 10:09:16;;;;;;;;;;;;;;;20.01;47.30;95646.06;10434984;28;3157;-41
2022/09/18 10:14:17;;;;;;;;;;;;;;;19.98;47.10;95646.59;10436883;28;3134;-41
2022/09/18 10:19:18;;;;;;;;;;;;;;;19.97;47.07;95648.41;10432498;28;3121;-41
2022/09/18 10:24:24;;;;;;;;;;;;;;;19.96;46.95;95649.50;10440775;28;3144;-41
2022/09/18 10:29:25;;;;;;;;;;;;;;;19.94;47.01;95653.44;10469651;28;3210;-42
2022/09/18 10:34:44;;;;;;;;;;;;;;;19.93;47.02;95657.91;10442029;28;3177;-42
2022/09/18 10:39:49;;;;;;;;;;;;;;;19.91;47.10;95649.50;10433830;28;3185;-41
2022/09/18 10:44:53;;;;;;;;;;;;;;;19.91;46.93;95649.50;10441626;28;3146;-41
2022/09/18 10:49:57;;;;;;;;;;;;;;;19.89;47.50;95642.94;10438958;28;3196;-41
2022/09/18 10:55:00;;;;;;;;;;;;;;;19.87;47.29;95640.59;10430260;28;3099;-43
2022/09/18 11:00:04;;;;;;;;;;;;;;;19.85;47.51;95637.44;10422794;28;3122;-43
2022/09/18 11:05:05;;;;;;;;;;;;;;;19.84;47.16;95641.16;10431343;28;3267;-41
2022/09/18 11:10:06;;;;;;;;;;;;;;;19.83;47.35;95644.81;10461171;28;3145;-43
2022/09/18 11:15:06;;;;;;;;;;;;;;;19.84;47.30;95641.16;10428115;28;3157;-42
2022/09/18 11:20:07;;;;;;;;;;;;;;;19.87;47.72;95642.44;10463364;28;3130;-41
2022/09/18 11:25:17;;;;;;;;;;;;;;;19.93;47.04;95639.50;10462937;28;3205;-42
2022/09/18 11:30:25;;;;;;;;;;;;;;;19.99;46.91;95643.69;10438073;28;3547;-42
2022/09/18 11:35:25;;;;;;;;;;;;;;;20.00;47.75;95629.47;10490423;28;3113;-43
2022/09/18 11:40:30;;;;;;;;;;;;;;;20.00;47.62;95624.22;10455822;28;3154;-43
2022/09/18 11:46:00;;;;;;;;;;;;;;;19.97;47.33;95618.72;10450689;28;3095;-44
2022/09/18 11:51:01;;;;;;;;;;;;;;;19.96;47.66;95617.94;10464281;28;3128;-44
2022/09/18 11:56:07;;;;;;;;;;;;;;;19.95;47.36;95608.44;10452247;28;3217;-42
2022/09/18 12:01:12;;;;;;;;;;;;;;;19.96;47.40;95612.66;10448640;28;3177;-41
2022/09/18 12:06:46;;;;;;;;;;;;;;;19.97;47.25;95618.72;10452308;28;3288;-41
2022/09/18 12:11:51;;;;;;;;;;;;;;;19.99;47.58;95611.34;10461767;28;3121;-42
2022/09/18 12:16:52;;;;;;;;;;;;;;;20.00;47.79;95613.69;10446607;28;3111;-42
2022/09/18 12:22:13;;;;;;;;;;;;;;;20.00;47.35;95613.69;10446321;28;3225;-47
2022/09/18 12:27:20;;;;;;;;;;;;;;;20.02;47.76;95603.69;10458999;28;3136;-44
2022/09/18 12:32:43;;;;;;;;;;;;;;;20.05;47.71;95613.63;10443908;28;3140;-43
2022/09/18 12:37:49;;;;;;;;;;;;;;;20.03;47.71;95613.13;10446658;28;3202;-44
2022/09/18 12:43:08;;;;;;;;;;;;;;;20.03;47.94;95613.13;10460770;28;3107;-42
2022/09/18 12:48:14;;;;;;;;;;;;;;;20.03;47.69;95604.47;10450286;28;3192;-42
2022/09/18 12:53:47;;;;;;;;;;;;;;;20.02;48.06;95606.31;10456423;28;3094;-44
2022/09/18 12:59:00;;;;;;;;;;;;;;;20.02;47.82;95611.56;10425646;28;3039;-42
2022/09/18 13:04:23;;;;;;;;;;;;;;;20.01;47.88;95598.69;10476738;28;3150;-44
2022/09/18 13:09:28;;;;;;;;;;;;;;;20.02;47.64;95589.72;10435860;28;3157;-45
2022/09/18 13:14:33;;;;;;;;;;;;;;;19.98;47.69;95594.75;10429379;28;3241;-42
2022/09/18 13:19:38;;;;;;;;;;;;;;;20.01;48.45;95591.56;10432666;28;3125;-45
2022/09/18 13:24:38;;;;;;;;;;;;;;;20.05;47.63;95587.34;10432936;28;3158;-48
2022/09/18 13:29:45;;;;;;;;;;;;;;;20.08;47.47;95583.38;10444549;28;3107;-50
2022/09/18 13:34:51;;;;;;;;;;;;;;;20.12;48.08;95579.13;10441281;28;3168;-48
2022/09/18 13:39:53;;;;;;;;;;;;;;;20.13;47.62;95567.56;10442916;28;3235;-47
2022/09/18 13:44:53;;;;;;;;;;;;;;;20.17;47.63;95564.09;10441323;28;3297;-47
2022/09/18 13:49:55;;;;;;;;;;;;;;;20.19;47.46;95558.56;10470850;28;3304;-57
2022/09/18 13:55:15;;;;;;;;;;;;;;;20.24;47.45;95558.53;10441565;28;3173;-57
2022/09/18 14:00:18;;;;;;;;;;;;;;;20.28;47.42;95556.94;10442214;28;3185;-54
2022/09/18 14:05:31;;;;;;;;;;;;;;;20.31;47.19;95550.34;10439043;28;3205;-51
2022/09/18 14:10:37;;;;;;;;;;;;;;;20.33;47.13;95550.84;10464903;28;3206;-52
2022/09/18 14:15:37;;;;;;;;;;;;;;;20.33;47.13;95546.38;10467834;28;3173;-56
2022/09/18 14:20:37;;;;;;;;;;;;;;;20.35;46.85;95543.44;10467235;28;3187;-45
2022/09/18 14:25:45;;;;;;;;;;;;;;;20.35;47.09;95538.97;10461818;28;3237;-45
2022/09/18 14:30:45;;;;;;;;;;;;;;;20.37;48.10;95526.31;10442052;28;3439;-46
2022/09/18 14:36:04;;;;;;;;;;;;;;;20.41;47.62;95523.91;10484392;28;3117;-53
2022/09/18 14:41:17;;;;;;;;;;;;;;;20.46;47.33;95515.97;10443727;28;3157;-59
2022/09/18 14:46:18;;;;;;;;;;;;;;;20.49;47.45;95500.41;10437261;28;3265;-56
2022/09/18 14:51:20;;;;;;;;;;;;;;;20.49;47.58;95500.41;10441771;28;3138;-55
2022/09/18 14:56:25;;;;;;;;;;;;;;;20.51;47.93;95500.13;10439011;28;3134;-54
2022/09/18 15:01:26;;;;;;;;;;;;;;;20.51;46.89;95503.53;10432861;28;3150;-47
2022/09/18 15:06:26;;;;;;;;;;;;;;;20.53;47.63;95506.69;10438066;28;3535;-55
2022/09/18 15:11:27;;;;;;;;;;;;;;;20.56;47.56;95492.19;10426431;28;3217;-58
2022/09/18 15:16:28;;;;;;;;;;;;;;;20.58;47.44;95490.84;10469372;28;3244;-60
2022/09/18 15:21:29;;;;;;;;;;;;;;;20.61;47.63;95498.16;10442586;28;3252;-57
2022/09/18 15:26:31;;;;;;;;;;;;;;;20.63;47.73;95493.41;10430499;28;3118;-53
2022/09/18 15:31:33;;;;;;;;;;;;;;;20.66;47.35;95486.81;10431713;28;3110;-57
2022/09/18 15:36:34;;;;;;;;;;;;;;;20.68;47.26;95484.66;10425102;28;3297;-52
2022/09/18 15:41:35;;;;;;;;;;;;;;;20.74;47.41;95489.59;10465009;28;3146;-64
2022/09/18 15:46:35;;;;;;;;;;;;;;;20.76;46.97;95489.31;10439005;28;3173;-46
2022/09/18 15:51:37;;;;;;;;;;;;;;;20.78;47.15;95490.63;10432198;28;3301;-45
2022/09/18 15:57:06;;;;;;;;;;;;;;;20.82;47.13;95481.09;10441854;28;3221;-46
2022/09/18 16:02:27;;;;;;;;;;;;;;;20.86;47.02;95474.19;10441234;28;3360;-45
2022/09/18 16:07:28;;;;;;;;;;;;;;;20.89;47.04;95472.84;10450327;28;3177;-47
2022/09/18 16:12:34;;;;;;;;;;;;;;;20.91;47.13;95476.78;10442159;28;3217;-44
2022/09/18 16:17:35;;;;;;;;;;;;;;;20.93;46.91;95469.38;10441654;28;3229;-44
2022/09/18 16:22:40;;;;;;;;;;;;;;;20.97;46.65;95470.38;10440634;28;3225;-55
2022/09/18 16:27:44;;;;;;;;;;;;;;;21.00;45.42;95461.91;10432469;28;3138;-47
2022/09/18 16:32:45;;;;;;;;;;;;;;;21.06;46.28;95458.16;10431460;28;3102;-45
2022/09/18 16:37:45;;;;;;;;;;;;;;;21.06;46.75;95463.44;10441454;28;3221;-51
2022/09/18 16:42:57;;;;;;;;;;;;;;;21.08;46.75;95446.56;10455842;28;3241;-48
2022/09/18 16:47:57;;;;;;;;;;;;;;;21.09;46.62;95451.53;10440357;28;3114;-47
2022/09/18 16:52:58;;;;;;;;;;;;;;;21.18;46.43;95451.69;10454882;28;3139;-55
2022/09/18 16:57:58;;;;;;;;;;;;;;;21.22;46.46;95450.06;10447713;28;3390;-59
2022/09/18 17:02:59;;;;;;;;;;;;;;;21.23;46.33;95446.34;10440017;28;3178;-59
2022/09/18 17:08:00;;;;;;;;;;;;;;;21.24;45.98;95453.19;10442910;28;3119;-75
2022/09/18 17:13:00;;;;;;;;;;;;;;;21.20;46.56;95452.19;10426084;28;3165;-47
2022/09/18 17:18:02;;;;;;;;;;;;;;;21.20;46.03;95446.91;10450201;28;3302;-43
2022/09/18 17:23:08;;;;;;;;;;;;;;;21.21;46.13;95444.00;10436570;28;3189;-45
2022/09/18 17:28:10;;;;;;;;;;;;;;;21.20;46.34;95439.00;10446126;28;3196;-49
2022/09/18 17:33:13;;;;;;;;;;;;;;;21.17;46.46;95442.19;10444576;28;3196;-49
2022/09/18 17:38:18;;;;;;;;;;;;;;;21.16;46.50;95443.28;10433842;28;3222;-44
2022/09/18 17:43:19;;;;;;;;;;;;;;;21.13;46.78;95446.47;10437712;28;3151;-49
2022/09/18 17:48:19;;;;;;;;;;;;;;;21.12;46.48;95444.91;10433506;28;3241;-45
2022/09/18 17:53:19;;;;;;;;;;;;;;;21.11;46.68;95444.13;10439368;28;3280;-44
2022/09/18 17:58:20;;;;;;;;;;;;;;;21.10;46.52;95447.06;10441242;28;3300;-44
2022/09/18 18:03:21;;;;;;;;;;;;;;;21.11;46.75;95448.63;10458269;28;3479;-44
2022/09/18 18:08:21;;;;;;;;;;;;;;;21.09;46.58;95456.81;10457845;28;3161;-44
2022/09/18 18:13:22;;;;;;;;;;;;;;;21.10;46.60;95462.88;10461078;28;3105;-44
2022/09/18 18:18:22;;;;;;;;;;;;;;;21.08;46.62;95452.63;10466659;28;3249;-45
2022/09/18 18:23:23;;;;;;;;;;;;;;;21.07;46.47;95458.94;10452730;28;3268;-44
2022/09/18 18:28:24;;;;;;;;;;;;;;;21.06;46.33;95466.06;10454645;28;3153;-45
2022/09/18 18:33:24;;;;;;;;;;;;;;;21.06;46.56;95471.34;10458218;28;3122;-45
2022/09/18 18:38:24;;;;;;;;;;;;;;;21.06;46.38;95468.69;10465754;28;3201;-45
2022/09/18 18:43:25;;;;;;;;;;;;;;;21.08;46.17;95470.28;10453909;28;3101;-46
2022/09/18 18:48:25;;;;;;;;;;;;;;;21.07;46.23;95466.84;10435688;28;3269;-45
2022/09/18 18:53:26;;;;;;;;;;;;;;;21.06;45.91;95468.69;10462981;28;3209;-48
2022/09/18 18:58:26;;;;;;;;;;;;;;;21.07;46.38;95464.22;10436728;28;3177;-46
2022/09/18 19:03:26;;;;;;;;;;;;;;;21.08;46.47;95465.81;10436930;28;3312;-45
2022/09/18 19:08:27;;;;;;;;;;;;;;;21.06;46.23;95463.44;10430926;28;3154;-45
2022/09/18 19:13:27;;;;;;;;;;;;;;;21.05;46.27;95469.78;10428717;28;3159;-46
2022/09/18 19:18:27;;;;;;;;;;;;;;;21.05;46.38;95461.06;10438404;28;3146;-45
2022/09/18 19:23:28;;;;;;;;;;;;;;;21.03;46.00;95458.72;10445790;28;3126;-45
2022/09/18 19:28:28;;;;;;;;;;;;;;;21.04;46.12;95468.19;10433725;28;3055;-45
2022/09/18 19:33:29;;;;;;;;;;;;;;;21.02;46.28;95462.41;10443702;28;3126;-44
2022/09/18 19:38:32;;;;;;;;;;;;;;;21.03;46.09;95457.94;10436267;28;3160;-47
2022/09/18 19:43:34;;;;;;;;;;;;;;;21.02;45.98;95451.09;10425670;28;3102;-47
2022/09/18 19:48:34;;;;;;;;;;;;;;;21.02;45.81;95448.47;10441024;28;3153;-44
2022/09/18 19:53:34;;;;;;;;;;;;;;;21.01;46.26;95445.03;10440668;28;3153;-45
2022/09/18 19:58:35;;;;;;;;;;;;;;;21.00;46.03;95435.53;10442016;28;3519;-43
2022/09/18 20:03:36;;;;;;;;;;;;;;;20.99;45.85;95447.16;10432298;28;3123;-45
2022/09/18 20:08:37;;;;;;;;;;;;;;;20.99;45.88;95444.53;10439267;28;3142;-44
2022/09/18 20:13:37;;;;;;;;;;;;;;;21.00;45.92;95424.22;10427824;28;3130;-48
2022/09/18 20:18:38;;;;;;;;;;;;;;;20.98;45.89;95424.50;10433456;28;3213;-44
2022/09/18 20:23:38;;;;;;;;;;;;;;;20.98;45.93;95421.06;10434625;28;3185;-45
2022/09/18 20:28:39;;;;;;;;;;;;;;;20.97;45.96;95412.41;10441631;28;3117;-44
2022/09/18 20:33:39;;;;;;;;;;;;;;;20.96;45.82;95421.38;10433686;28;3205;-46
2022/09/18 20:38:40;;;;;;;;;;;;;;;20.95;46.02;95414.53;10435991;28;3270;-47
2022/09/18 20:43:41;;;;;;;;;;;;;;;20.94;45.97;95407.69;10439428;28;3154;-45
2022/09/18 20:48:55;;;;;;;;;;;;;;;20.93;45.97;95397.44;10457018;28;3257;-46
2022/09/18 20:53:56;;;;;;;;;;;;;;;20.92;45.91;95391.38;10434604;28;3145;-45
2022/09/18 20:58:56;;;;;;;;;;;;;;;20.93;45.53;95400.06;10441054;28;3479;-44
2022/09/18 21:03:57;;;;;;;;;;;;;;;20.90;45.68;95390.88;10440198;28;3126;-44
2022/09/18 21:08:58;;;;;;;;;;;;;;;20.89;45.47;95402.50;10442340;28;3111;-45
2022/09/18 21:13:59;;;;;;;;;;;;;;;20.89;45.66;95396.44;10428812;28;3220;-44
2022/09/18 21:19:00;;;;;;;;;;;;;;;20.88;45.62;95389.59;10429442;28;3323;-44
2022/09/18 21:24:01;;;;;;;;;;;;;;;20.88;45.33;95382.47;10429585;28;3095;-45
2022/09/18 21:29:13;;;;;;;;;;;;;;;20.87;46.03;95365.13;10435419;28;3157;-45
2022/09/18 21:34:14;;;;;;;;;;;;;;;20.87;45.72;95375.66;10432014;28;3190;-46
2022/09/18 21:39:15;;;;;;;;;;;;;;;20.85;45.56;95372.53;10425073;28;3265;-46
2022/09/18 21:44:16;;;;;;;;;;;;;;;20.85;45.40;95367.25;10434124;28;3113;-45
2022/09/18 21:49:18;;;;;;;;;;;;;;;20.85;45.52;95377.78;10445262;28;3162;-44
2022/09/18 21:54:19;;;;;;;;;;;;;;;20.82;45.77;95375.72;10471038;28;3161;-44
2022/09/18 21:59:23;;;;;;;;;;;;;;;20.82;45.66;95378.34;10447238;28;3169;-44
2022/09/18 22:04:25;;;;;;;;;;;;;;;20.80;45.43;95380.47;10438091;28;3166;-47
2022/09/18 22:09:27;;;;;;;;;;;;;;;20.79;44.96;95373.63;10448013;28;3178;-44
2022/09/18 22:14:30;;;;;;;;;;;;;;;20.73;45.17;95389.81;10452884;28;3290;-47
2022/09/18 22:19:32;;;;;;;;;;;;;;;20.73;44.85;95390.56;10454810;28;3101;-43
2022/09/18 22:24:32;;;;;;;;;;;;;;;20.72;45.08;95393.50;10487544;28;3131;-43
2022/09/18 22:29:35;;;;;;;;;;;;;;;20.73;45.00;95392.44;10462431;28;3162;-43
2022/09/18 22:34:36;;;;;;;;;;;;;;;20.70;45.12;95383.25;10457176;28;3205;-45
2022/09/18 22:39:36;;;;;;;;;;;;;;;20.73;45.14;95380.03;10460809;28;3141;-43
2022/09/18 22:44:36;;;;;;;;;;;;;;;20.73;44.67;95381.91;10494524;28;3181;-45
2022/09/18 22:49:37;;;;;;;;;;;;;;;20.72;45.17;95383.75;10457975;28;3114;-44
2022/09/18 22:54:37;;;;;;;;;;;;;;;20.72;44.95;95375.84;10460995;28;3292;-44
2022/09/18 22:59:37;;;;;;;;;;;;;;;20.70;44.81;95380.63;10443341;28;3142;-44
2022/09/18 23:04:38;;;;;;;;;;;;;;;20.71;44.67;95376.13;10444580;28;3121;-43
2022/09/18 23:09:39;;;;;;;;;;;;;;;20.70;44.86;95372.72;10447245;28;3075;-44
2022/09/18 23:14:39;;;;;;;;;;;;;;;20.68;44.90;95364.31;10430296;28;3218;-44
2022/09/18 23:19:40;;;;;;;;;;;;;;;20.67;44.43;95370.63;10436183;28;3151;-44
2022/09/18 23:24:40;;;;;;;;;;;;;;;20.66;44.57;95363.81;10433875;28;3110;-43
2022/09/18 23:29:40;;;;;;;;;;;;;;;20.65;44.42;95367.50;10441175;28;3757;-43
2022/09/18 23:34:41;;;;;;;;;;;;;;;20.65;44.53;95372.75;10431464;28;3297;-45
2022/09/18 23:39:41;;;;;;;;;;;;;;;20.64;44.43;95371.22;10444396;28;3129;-43
2022/09/18 23:44:41;;;;;;;;;;;;;;;20.64;44.62;95375.69;10426757;28;3150;-46
2022/09/18 23:49:42;;;;;;;;;;;;;;;20.64;44.28;95389.66;10442085;28;3178;-44
2022/09/18 23:54:42;;;;;;;;;;;;;;;20.63;44.63;95398.59;10440878;28;3159;-44
2022/09/18 23:59:43;;;;;;;;;;;;;;;20.62;44.40;95404.94;10435897;28;3162;-44
